Time;durP1;ratioP1;P1;durP2;ratioP2;P2;SDS_P1;SDS_P2;PMS_P1;PMS_P2;Temp;Humidity;BMP_temperature;BMP_pressure;BME280_temperature;BME280_humidity;BME280_pressure;Samples;Min_cycle;Max_cycle;Signal;HPM_P1;HPM_P2
2023/06/17 00:01:49;;;;;;;8.40;4.97;;;20.80;67.00;;;;;;6186125;23;20457;-83
2023/06/17 00:04:15;;;;;;;7.28;5.07;;;20.70;67.10;;;;;;6186249;23;20021;-82
2023/06/17 00:06:40;;;;;;;8.18;4.80;;;20.60;67.10;;;;;;6187083;23;20061;-82
2023/06/17 00:09:07;;;;;;;10.10;4.85;;;20.60;67.60;;;;;;6186757;23;20013;-82
2023/06/17 00:11:32;;;;;;;6.75;4.70;;;20.60;67.40;;;;;;6159112;23;20017;-83
2023/06/17 00:14:00;;;;;;;9.05;4.80;;;20.50;67.50;;;;;;6159941;23;20017;-82
2023/06/17 00:16:26;;;;;;;9.43;4.85;;;20.40;67.30;;;;;;6159982;23;20017;-82
2023/06/17 00:18:53;;;;;;;7.13;5.07;;;20.40;67.60;;;;;;6185680;23;20013;-83
2023/06/17 00:21:19;;;;;;;8.02;5.05;;;20.30;67.60;;;;;;6186551;23;20100;-83
2023/06/17 00:23:45;;;;;;;7.75;5.07;;;20.20;68.40;;;;;;6186814;23;20040;-82
2023/06/17 00:26:10;;;;;;;7.97;5.10;;;20.10;68.50;;;;;;6158621;23;20520;-82
2023/06/17 00:28:36;;;;;;;9.23;5.40;;;20.10;69.10;;;;;;6185967;23;20338;-82
2023/06/17 00:31:01;;;;;;;9.05;5.28;;;20.00;69.40;;;;;;6159249;23;20013;-83
2023/06/17 00:33:27;;;;;;;8.95;5.07;;;20.00;69.60;;;;;;6185885;23;20383;-83
2023/06/17 00:35:53;;;;;;;9.65;5.20;;;19.90;69.40;;;;;;6159448;23;20358;-82
2023/06/17 00:38:18;;;;;;;7.30;4.80;;;19.90;69.60;;;;;;6186903;23;20019;-82
2023/06/17 00:40:44;;;;;;;10.63;5.35;;;19.80;70.00;;;;;;6185332;23;20016;-83
2023/06/17 00:43:09;;;;;;;7.97;5.30;;;19.80;70.50;;;;;;6159729;23;20095;-83
2023/06/17 00:45:38;;;;;;;6.95;5.00;;;19.80;71.00;;;;;;6158916;23;20013;-83
2023/06/17 00:48:07;;;;;;;7.97;5.68;;;19.70;70.90;;;;;;6186078;23;20016;-83
2023/06/17 00:50:33;;;;;;;9.13;5.45;;;19.70;71.50;;;;;;6159638;23;20013;-83
2023/06/17 00:52:59;;;;;;;7.35;5.00;;;19.70;71.60;;;;;;6158404;23;20095;-82
2023/06/17 00:55:26;;;;;;;9.07;5.38;;;19.70;72.00;;;;;;6159756;23;20047;-83
2023/06/17 00:57:53;;;;;;;8.02;5.28;;;19.60;72.30;;;;;;6186022;23;20382;-83
2023/06/17 01:00:18;;;;;;;7.95;5.50;;;19.60;72.50;;;;;;6158905;23;20084;-83
2023/06/17 01:02:46;;;;;;;6.88;5.10;;;19.60;72.50;;;;;;6159587;23;20021;-82
2023/06/17 01:05:14;;;;;;;10.90;5.40;;;19.60;72.70;;;;;;6185531;23;20013;-82
2023/06/17 01:08:08;;;;;;;9.35;5.55;;;19.60;72.80;;;;;;6158886;23;20029;-82
2023/06/17 01:10:40;;;;;;;8.70;5.72;;;19.50;71.70;;;;;;6159967;23;20013;-82
2023/06/17 01:13:06;;;;;;;9.17;6.13;;;19.50;73.00;;;;;;6186263;23;20112;-82
2023/06/17 01:15:35;;;;;;;9.68;5.82;;;19.50;73.30;;;;;;6184807;23;20276;-83
2023/06/17 01:18:04;;;;;;;8.50;5.80;;;19.50;73.50;;;;;;6158945;23;20021;-82
2023/06/17 01:20:32;;;;;;;10.15;5.80;;;19.50;73.90;;;;;;6186166;23;20024;-82
2023/06/17 01:22:59;;;;;;;10.05;6.20;;;19.50;73.50;;;;;;6185181;23;20019;-83
2023/06/17 01:25:29;;;;;;;9.20;5.75;;;19.50;73.30;;;;;;6186088;23;20017;-82
2023/06/17 01:28:00;;;;;;;7.68;5.50;;;19.50;74.10;;;;;;6158053;23;20020;-82
2023/06/17 01:30:30;;;;;;;9.30;6.38;;;19.40;74.10;;;;;;6186365;23;20013;-82
2023/06/17 01:32:58;;;;;;;14.45;7.43;;;19.50;74.00;;;;;;6158757;23;20017;-83
2023/06/17 01:35:27;;;;;;;11.63;7.68;;;19.40;74.90;;;;;;6184976;23;20346;-82
2023/06/17 01:38:06;;;;;;;9.18;5.85;;;19.40;76.00;;;;;;6185621;23;20470;-82
2023/06/17 01:40:33;;;;;;;9.20;6.47;;;19.40;76.00;;;;;;6159205;23;20079;-82
2023/06/17 01:43:01;;;;;;;15.10;9.10;;;19.30;75.30;;;;;;6184637;23;20023;-82
2023/06/17 01:45:28;;;;;;;8.93;5.88;;;19.30;78.00;;;;;;6185830;23;20017;-82
2023/06/17 01:47:53;;;;;;;9.23;6.32;;;19.30;76.90;;;;;;6158648;23;20017;-82
2023/06/17 01:50:20;;;;;;;10.35;6.40;;;19.30;76.50;;;;;;6184780;23;20009;-82
2023/06/17 01:52:46;;;;;;;9.70;6.78;;;19.30;76.20;;;;;;6159283;23;20017;-82
2023/06/17 01:55:12;;;;;;;10.85;6.20;;;19.20;76.60;;;;;;6158596;23;20016;-81
2023/06/17 01:57:38;;;;;;;9.57;6.53;;;19.20;76.70;;;;;;6158136;23;20048;-82
2023/06/17 02:00:04;;;;;;;10.43;6.47;;;19.20;76.30;;;;;;6158371;23;20016;-82
2023/06/17 02:02:30;;;;;;;11.85;8.02;;;19.20;76.10;;;;;;6158964;23;20024;-82
2023/06/17 02:04:56;;;;;;;18.63;10.60;;;19.20;76.40;;;;;;6157995;23;20086;-82
2023/06/17 02:07:25;;;;;;;9.65;6.50;;;19.20;79.50;;;;;;6159345;23;20017;-81
2023/06/17 02:09:51;;;;;;;12.00;8.05;;;19.20;78.00;;;;;;6184656;23;20024;-81
2023/06/17 02:12:17;;;;;;;9.05;6.97;;;19.10;77.70;;;;;;6159217;23;20053;-82
2023/06/17 02:14:42;;;;;;;12.48;7.40;;;19.10;77.60;;;;;;6185235;23;20017;-81
2023/06/17 02:17:11;;;;;;;15.43;8.80;;;19.00;77.20;;;;;;6183965;23;20023;-82
2023/06/17 02:19:37;;;;;;;10.90;8.13;;;19.00;77.80;;;;;;6185822;23;20080;-82
2023/06/17 02:22:04;;;;;;;10.60;7.05;;;19.00;77.90;;;;;;6158867;23;20027;-81
2023/06/17 02:24:30;;;;;;;10.52;7.28;;;19.00;77.40;;;;;;6184452;23;20084;-82
2023/06/17 02:26:56;;;;;;;13.75;8.75;;;19.00;77.00;;;;;;6185104;23;20068;-81
2023/06/17 02:29:22;;;;;;;11.60;7.53;;;18.90;78.00;;;;;;6185111;23;20017;-81
2023/06/17 02:31:47;;;;;;;10.43;7.43;;;18.90;77.50;;;;;;6183532;23;20058;-81
2023/06/17 02:34:13;;;;;;;14.23;9.05;;;18.80;76.40;;;;;;6158667;23;20021;-81
2023/06/17 02:36:39;;;;;;;12.15;7.28;;;18.80;78.00;;;;;;6158882;23;20378;-81
2023/06/17 02:39:06;;;;;;;9.65;7.00;;;18.80;77.30;;;;;;6184351;23;20056;-81
2023/06/17 02:41:32;;;;;;;12.63;7.40;;;18.70;77.60;;;;;;6185490;23;20075;-81
2023/06/17 02:43:57;;;;;;;11.55;6.90;;;18.70;78.00;;;;;;6184911;23;20009;-82
2023/06/17 02:46:24;;;;;;;10.13;7.40;;;18.70;76.90;;;;;;6157859;23;20353;-81
2023/06/17 02:48:50;;;;;;;10.63;7.55;;;18.70;76.90;;;;;;6184625;23;20020;-82
2023/06/17 02:51:16;;;;;;;11.38;7.68;;;18.60;77.40;;;;;;6185381;23;20434;-82
2023/06/17 02:53:42;;;;;;;13.15;8.57;;;18.70;77.40;;;;;;6184194;23;20060;-81
2023/06/17 02:56:07;;;;;;;13.82;7.80;;;18.60;77.90;;;;;;6158113;23;20100;-81
2023/06/17 02:58:34;;;;;;;10.15;7.72;;;18.60;77.80;;;;;;6158596;23;20021;-81
2023/06/17 03:00:59;;;;;;;11.95;7.65;;;18.60;78.20;;;;;;6183958;23;20071;-81
2023/06/17 03:03:34;;;;;;;10.77;7.28;;;18.60;78.40;;;;;;6158299;23;20008;-82
2023/06/17 03:06:03;;;;;;;9.25;7.20;;;18.60;78.20;;;;;;6185046;23;20025;-82
2023/06/17 03:08:33;;;;;;;11.18;7.10;;;18.60;78.50;;;;;;6184356;23;20013;-82
2023/06/17 03:11:02;;;;;;;13.95;9.88;;;18.70;78.20;;;;;;6184706;23;20028;-82
2023/06/17 03:13:28;;;;;;;11.95;7.60;;;18.60;79.30;;;;;;6183885;23;20028;-82
2023/06/17 03:15:55;;;;;;;11.10;7.43;;;18.60;78.70;;;;;;6158019;23;20048;-82
2023/06/17 03:18:24;;;;;;;11.32;7.28;;;18.60;78.10;;;;;;6158728;23;20020;-81
2023/06/17 03:20:53;;;;;;;10.20;7.63;;;18.60;78.50;;;;;;6183230;23;20529;-81
2023/06/17 03:23:21;;;;;;;10.63;7.75;;;18.60;78.60;;;;;;6158548;23;20024;-81
2023/06/17 03:25:51;;;;;;;12.30;7.78;;;18.60;78.70;;;;;;6185186;23;20017;-81
2023/06/17 03:28:17;;;;;;;11.80;7.95;;;18.60;78.50;;;;;;6157089;23;20013;-81
2023/06/17 03:30:43;;;;;;;19.40;12.55;;;18.60;78.00;;;;;;6158407;23;20020;-81
2023/06/17 03:33:11;;;;;;;12.25;7.80;;;18.60;82.20;;;;;;6183847;23;20072;-81
2023/06/17 03:35:37;;;;;;;11.43;7.72;;;18.60;80.50;;;;;;6184115;23;20017;-82
2023/06/17 03:38:03;;;;;;;10.02;8.27;;;18.50;79.70;;;;;;6184588;23;20024;-81
2023/06/17 03:40:28;;;;;;;10.82;7.40;;;18.50;79.50;;;;;;6158476;23;20056;-81
2023/06/17 03:42:54;;;;;;;10.57;7.55;;;18.50;79.00;;;;;;6157414;23;20044;-81
2023/06/17 03:45:21;;;;;;;13.70;10.32;;;18.50;79.20;;;;;;6158349;23;20025;-82
2023/06/17 03:47:46;;;;;;;10.65;8.18;;;18.50;80.40;;;;;;6157991;23;20049;-82
2023/06/17 03:50:13;;;;;;;11.95;8.10;;;18.50;80.00;;;;;;6157306;23;20020;-82
2023/06/17 03:52:39;;;;;;;13.40;9.02;;;18.40;79.60;;;;;;6184748;23;20013;-82
2023/06/17 03:55:05;;;;;;;11.90;8.85;;;18.40;79.70;;;;;;6158125;23;20027;-82
2023/06/17 03:57:30;;;;;;;9.77;7.70;;;18.50;80.10;;;;;;6157232;23;20021;-82
2023/06/17 03:59:56;;;;;;;9.10;7.63;;;18.50;79.90;;;;;;6157550;23;20067;-82
2023/06/17 04:02:22;;;;;;;13.70;8.25;;;18.50;79.80;;;;;;6157522;23;20093;-82
2023/06/17 04:04:48;;;;;;;11.88;8.20;;;18.50;80.60;;;;;;6157905;23;20039;-81
2023/06/17 04:07:13;;;;;;;10.45;8.30;;;18.50;80.10;;;;;;6158065;23;20029;-82
2023/06/17 04:09:39;;;;;;;11.82;8.60;;;18.40;79.80;;;;;;6183922;23;20318;-82
2023/06/17 04:12:05;;;;;;;9.57;7.63;;;18.40;79.40;;;;;;6157691;23;20092;-82
2023/06/17 04:14:30;;;;;;;11.55;8.18;;;18.40;79.70;;;;;;6157937;23;20095;-82
2023/06/17 04:16:56;;;;;;;11.23;8.27;;;18.40;80.10;;;;;;6183108;23;20028;-82
2023/06/17 04:19:23;;;;;;;10.18;7.90;;;18.40;80.00;;;;;;6184738;23;20055;-82
2023/06/17 04:21:49;;;;;;;11.73;8.40;;;18.40;80.20;;;;;;6157411;23;20071;-82
2023/06/17 04:24:15;;;;;;;12.77;9.80;;;18.40;80.10;;;;;;6156920;23;20088;-82
2023/06/17 04:26:44;;;;;;;14.50;10.10;;;18.40;80.20;;;;;;6184428;23;20048;-82
2023/06/17 04:29:10;;;;;;;11.82;8.57;;;18.40;80.90;;;;;;6157707;23;20009;-82
2023/06/17 04:31:40;;;;;;;11.15;8.57;;;18.40;80.20;;;;;;6156393;23;20088;-82
2023/06/17 04:34:07;;;;;;;12.10;8.45;;;18.40;80.00;;;;;;6157549;23;20025;-81
2023/06/17 04:36:32;;;;;;;11.55;8.05;;;18.40;80.10;;;;;;6184181;23;20021;-82
2023/06/17 04:38:58;;;;;;;11.95;8.85;;;18.30;80.10;;;;;;6183043;23;20021;-82
2023/06/17 04:41:26;;;;;;;12.73;8.88;;;18.30;79.60;;;;;;6159375;23;20032;-82
2023/06/17 04:43:53;;;;;;;12.20;8.43;;;18.30;80.10;;;;;;6186242;23;20364;-82
2023/06/17 04:46:19;;;;;;;11.95;8.65;;;18.30;78.90;;;;;;6185822;23;20017;-82
2023/06/17 04:48:45;;;;;;;16.05;11.32;;;18.30;79.00;;;;;;6159593;23;20013;-82
2023/06/17 04:51:12;;;;;;;16.85;11.85;;;18.30;80.70;;;;;;6186261;23;20027;-82
2023/06/17 04:53:38;;;;;;;15.80;12.73;;;18.20;82.00;;;;;;6158955;23;20024;-82
2023/06/17 04:56:07;;;;;;;12.50;9.18;;;18.20;83.20;;;;;;6159405;23;20049;-82
2023/06/17 04:58:33;;;;;;;16.58;13.23;;;18.20;82.00;;;;;;6186522;23;20013;-82
2023/06/17 05:00:59;;;;;;;12.43;9.35;;;18.20;83.40;;;;;;6158131;23;20446;-82
2023/06/17 05:03:24;;;;;;;12.20;9.25;;;18.10;82.20;;;;;;6185929;23;20020;-81
2023/06/17 05:05:51;;;;;;;11.43;8.90;;;18.20;82.10;;;;;;6184576;23;20021;-82
2023/06/17 05:08:17;;;;;;;14.85;10.48;;;18.10;81.30;;;;;;6185345;23;20370;-81
2023/06/17 05:10:43;;;;;;;13.98;9.65;;;18.10;81.80;;;;;;6158470;23;20017;-82
2023/06/17 05:13:08;;;;;;;13.80;9.18;;;18.10;81.50;;;;;;6157433;23;20365;-82
2023/06/17 05:15:34;;;;;;;13.40;8.70;;;18.10;81.40;;;;;;6159610;23;20020;-82
2023/06/17 05:17:59;;;;;;;14.32;9.80;;;18.10;80.70;;;;;;6185178;23;20608;-84
2023/06/17 05:20:25;;;;;;;12.88;9.43;;;18.10;80.50;;;;;;6158431;23;20009;-84
2023/06/17 05:22:50;;;;;;;17.83;13.93;;;18.10;81.50;;;;;;6185673;23;20434;-84
2023/06/17 05:25:16;;;;;;;14.10;8.60;;;18.20;84.30;;;;;;6159754;23;20100;-83
2023/06/17 05:27:42;;;;;;;15.48;10.43;;;18.10;83.30;;;;;;6157828;23;20041;-83
2023/06/17 05:30:08;;;;;;;11.07;8.90;;;18.10;83.10;;;;;;6159244;23;20028;-83
2023/06/17 05:32:33;;;;;;;12.25;9.50;;;18.10;82.10;;;;;;6185685;23;20025;-84
2023/06/17 05:34:59;;;;;;;14.00;9.30;;;18.10;81.40;;;;;;6184320;23;20025;-83
2023/06/17 05:37:25;;;;;;;16.08;11.35;;;18.10;81.50;;;;;;6159435;23;20456;-82
2023/06/17 05:39:50;;;;;;;16.63;12.55;;;18.10;82.80;;;;;;6185546;23;20079;-82
2023/06/17 05:42:16;;;;;;;17.98;13.85;;;18.10;84.90;;;;;;6158224;23;20013;-83
2023/06/17 05:44:42;;;;;;;16.90;11.80;;;18.10;85.00;;;;;;6159739;23;20021;-83
2023/06/17 05:47:07;;;;;;;24.35;12.88;;;18.20;84.50;;;;;;6185484;23;20024;-83
2023/06/17 05:49:33;;;;;;;15.38;10.98;;;18.10;85.10;;;;;;6158117;23;20009;-83
2023/06/17 05:51:58;;;;;;;12.57;9.65;;;18.10;84.00;;;;;;6158491;23;20081;-83
2023/06/17 05:54:24;;;;;;;18.17;13.20;;;18.10;83.60;;;;;;6188255;23;20013;-94
2023/06/17 05:56:50;;;;;;;12.80;10.88;;;18.10;84.60;;;;;;6161863;23;20053;-92
2023/06/17 05:59:16;;;;;;;13.80;10.25;;;18.10;84.60;;;;;;6188564;23;20017;-93
2023/06/17 06:01:41;;;;;;;15.88;11.93;;;18.10;84.10;;;;;;6161954;23;20032;-88
2023/06/17 06:04:07;;;;;;;13.20;9.80;;;18.10;84.50;;;;;;6184324;23;20017;-83
2023/06/17 06:06:32;;;;;;;12.60;9.63;;;18.10;84.00;;;;;;6185513;23;20073;-83
2023/06/17 06:08:58;;;;;;;14.98;10.60;;;18.10;83.60;;;;;;6185088;23;20021;-84
2023/06/17 06:11:24;;;;;;;12.80;10.00;;;18.10;83.60;;;;;;6185120;23;20125;-84
2023/06/17 06:13:49;;;;;;;12.65;9.70;;;18.10;84.60;;;;;;6158757;23;20025;-84
2023/06/17 06:16:15;;;;;;;14.43;9.82;;;18.10;83.80;;;;;;6158433;23;20050;-83
2023/06/17 06:18:40;;;;;;;13.75;9.60;;;18.10;83.50;;;;;;6158833;23;20056;-84
2023/06/17 06:21:06;;;;;;;11.75;9.68;;;18.10;83.40;;;;;;6185061;23;20021;-83
2023/06/17 06:23:32;;;;;;;17.90;13.63;;;18.10;83.20;;;;;;6184429;23;20097;-84
2023/06/17 06:25:58;;;;;;;12.90;10.13;;;18.10;85.30;;;;;;6158111;23;20013;-83
2023/06/17 06:28:23;;;;;;;12.18;9.45;;;18.10;84.20;;;;;;6185354;23;20021;-83
2023/06/17 06:30:49;;;;;;;16.05;12.15;;;18.10;83.80;;;;;;6157864;23;20017;-83
2023/06/17 06:33:14;;;;;;;19.45;14.07;;;18.10;84.90;;;;;;6158880;23;20087;-82
2023/06/17 06:35:42;;;;;;;13.40;10.23;;;18.10;86.40;;;;;;6185823;23;20024;-83
2023/06/17 06:38:07;;;;;;;13.60;10.65;;;18.10;85.30;;;;;;6157522;23;20513;-83
2023/06/17 06:40:33;;;;;;;14.75;11.43;;;18.10;85.30;;;;;;6159040;23;20021;-84
2023/06/17 06:42:58;;;;;;;12.55;9.15;;;18.10;85.60;;;;;;6185343;23;20013;-83
2023/06/17 06:45:24;;;;;;;20.20;14.50;;;18.10;84.90;;;;;;6183908;23;20025;-83
2023/06/17 06:47:50;;;;;;;24.48;16.90;;;18.10;86.60;;;;;;6156839;23;20017;-85
2023/06/17 06:50:16;;;;;;;15.15;11.25;;;18.10;88.70;;;;;;6184723;23;20013;-84
2023/06/17 06:52:41;;;;;;;13.77;10.52;;;18.20;86.80;;;;;;6184258;23;20044;-84
2023/06/17 06:55:07;;;;;;;13.90;10.57;;;18.20;85.50;;;;;;6184696;23;20013;-81
2023/06/17 06:57:32;;;;;;;12.80;10.13;;;18.20;85.00;;;;;;6185487;23;20489;-82
2023/06/17 06:59:58;;;;;;;18.70;14.95;;;18.20;84.80;;;;;;6183452;23;20020;-82
2023/06/17 07:02:24;;;;;;;26.05;15.55;;;18.20;87.70;;;;;;6158416;23;20060;-82
2023/06/17 07:04:50;;;;;;;13.02;9.73;;;18.20;90.00;;;;;;6184727;23;20017;-82
2023/06/17 07:07:15;;;;;;;25.63;17.65;;;18.20;88.00;;;;;;6184246;23;20028;-84
2023/06/17 07:09:41;;;;;;;18.55;14.75;;;18.20;90.20;;;;;;6184725;23;20009;-84
2023/06/17 07:12:06;;;;;;;19.58;15.45;;;18.10;90.40;;;;;;6184285;23;20021;-84
2023/06/17 07:14:32;;;;;;;23.77;16.92;;;18.10;90.40;;;;;;6155524;23;20021;-84
2023/06/17 07:16:58;;;;;;;20.42;14.90;;;18.10;91.00;;;;;;6182823;23;20045;-84
2023/06/17 07:19:23;;;;;;;20.13;14.15;;;18.00;90.80;;;;;;6182873;23;20092;-84
2023/06/17 07:21:49;;;;;;;21.23;16.88;;;18.10;90.30;;;;;;6157756;23;20357;-84
2023/06/17 07:24:16;;;;;;;21.38;15.30;;;18.10;91.10;;;;;;6185515;23;20095;-85
2023/06/17 07:26:41;;;;;;;22.40;16.30;;;18.10;90.90;;;;;;6183910;23;20013;-84
2023/06/17 07:29:07;;;;;;;16.23;13.82;;;18.10;91.00;;;;;;6158094;23;20425;-84
2023/06/17 07:31:32;;;;;;;18.95;14.20;;;18.10;90.60;;;;;;6158405;23;20021;-84
2023/06/17 07:33:58;;;;;;;21.45;15.95;;;18.10;90.20;;;;;;6183868;23;20027;-84
2023/06/17 07:36:24;;;;;;;20.65;15.70;;;18.20;90.90;;;;;;6158901;23;20025;-84
2023/06/17 07:38:51;;;;;;;19.95;15.75;;;18.20;90.90;;;;;;6157828;23;20569;-84
2023/06/17 07:41:17;;;;;;;18.35;13.70;;;18.30;91.30;;;;;;6184076;23;20021;-84
2023/06/17 07:43:42;;;;;;;22.92;15.43;;;18.30;90.90;;;;;;6158310;23;20445;-84
2023/06/17 07:46:08;;;;;;;22.20;16.85;;;18.40;90.90;;;;;;6184616;23;20477;-84
2023/06/17 07:48:33;;;;;;;19.77;16.25;;;18.40;91.50;;;;;;6184040;23;20017;-84
2023/06/17 07:50:59;;;;;;;18.35;14.90;;;18.50;91.50;;;;;;6184680;23;20013;-83
2023/06/17 07:53:25;;;;;;;22.35;16.58;;;18.60;91.20;;;;;;6157467;23;20017;-84
2023/06/17 07:55:52;;;;;;;20.27;15.13;;;18.60;91.30;;;;;;6156250;23;20346;-83
2023/06/17 07:58:18;;;;;;;18.63;14.77;;;18.60;91.10;;;;;;6185025;23;20319;-83
2023/06/17 08:00:44;;;;;;;20.27;14.82;;;18.60;91.30;;;;;;6157935;23;20046;-84
2023/06/17 08:03:10;;;;;;;21.65;14.77;;;18.70;91.30;;;;;;6183299;23;20036;-84
2023/06/17 08:05:36;;;;;;;23.83;15.90;;;18.80;91.20;;;;;;6184368;23;20468;-84
2023/06/17 08:08:02;;;;;;;23.98;14.15;;;18.80;91.40;;;;;;6184133;23;20025;-84
2023/06/17 08:10:28;;;;;;;17.58;15.07;;;18.90;91.50;;;;;;6157447;23;20060;-83
2023/06/17 08:12:53;;;;;;;16.95;13.57;;;18.90;91.90;;;;;;6184453;23;20040;-83
2023/06/17 08:15:19;;;;;;;21.73;14.07;;;18.90;91.20;;;;;;6184862;23;20315;-84
2023/06/17 08:17:47;;;;;;;21.38;13.80;;;18.90;91.40;;;;;;6158324;23;20028;-84
2023/06/17 08:20:13;;;;;;;16.58;13.75;;;19.00;91.50;;;;;;6186738;23;20013;-83
2023/06/17 08:22:39;;;;;;;17.90;13.63;;;19.10;91.40;;;;;;6158676;23;20021;-83
2023/06/17 08:25:05;;;;;;;18.00;13.15;;;19.20;91.30;;;;;;6186048;23;20009;-83
2023/06/17 08:27:32;;;;;;;19.58;12.85;;;19.30;91.60;;;;;;6159936;23;20021;-84
2023/06/17 08:29:58;;;;;;;17.52;12.13;;;19.40;91.40;;;;;;6158513;23;20095;-83
2023/06/17 08:32:24;;;;;;;15.63;11.60;;;19.50;91.00;;;;;;6159287;23;20021;-83
2023/06/17 08:34:50;;;;;;;18.15;12.65;;;19.60;90.80;;;;;;6159575;23;20277;-83
2023/06/17 08:37:16;;;;;;;17.58;11.70;;;19.70;90.80;;;;;;6159074;23;20045;-83
2023/06/17 08:39:42;;;;;;;17.25;12.00;;;19.90;90.70;;;;;;6159688;23;20013;-84
2023/06/17 08:42:09;;;;;;;17.65;12.63;;;20.00;91.10;;;;;;6158792;23;20075;-84
2023/06/17 08:44:41;;;;;;;19.38;12.15;;;20.10;91.00;;;;;;6158479;23;20021;-84
2023/06/17 08:47:07;;;;;;;15.30;11.35;;;20.20;90.50;;;;;;6158994;23;20023;-84
2023/06/17 08:49:33;;;;;;;15.90;11.45;;;20.30;90.30;;;;;;6186391;23;20040;-84
2023/06/17 08:52:00;;;;;;;17.65;11.25;;;20.40;90.10;;;;;;6157919;23;20461;-84
2023/06/17 08:54:39;;;;;;;16.13;11.90;;;20.40;89.80;;;;;;6185758;23;20024;-84
2023/06/17 08:57:14;;;;;;;13.88;10.15;;;20.50;89.20;;;;;;6158735;23;20017;-84
2023/06/17 08:59:40;;;;;;;17.13;11.50;;;20.60;89.40;;;;;;6158249;23;20013;-84
2023/06/17 09:02:07;;;;;;;14.20;10.38;;;20.60;89.30;;;;;;6184654;23;20457;-84
2023/06/17 09:04:35;;;;;;;13.75;10.60;;;20.70;89.00;;;;;;6159353;23;20019;-83
2023/06/17 09:07:00;;;;;;;18.90;11.45;;;20.90;88.60;;;;;;6158026;23;20398;-83
2023/06/17 09:09:26;;;;;;;16.25;11.23;;;21.00;88.60;;;;;;6159226;23;20013;-84
2023/06/17 09:11:52;;;;;;;14.68;10.45;;;21.00;88.20;;;;;;6185040;23;20316;-83
2023/06/17 09:14:19;;;;;;;17.77;11.23;;;21.10;87.90;;;;;;6159239;23;20052;-82
2023/06/17 09:16:45;;;;;;;16.38;10.90;;;21.10;86.90;;;;;;6159461;23;20024;-83
2023/06/17 09:19:13;;;;;;;15.15;10.70;;;21.20;87.30;;;;;;6157610;23;20027;-83
2023/06/17 09:21:39;;;;;;;12.45;9.75;;;21.30;87.50;;;;;;6159143;23;20017;-83
2023/06/17 09:24:07;;;;;;;14.07;10.27;;;21.40;87.10;;;;;;6185476;23;20013;-83
2023/06/17 09:26:34;;;;;;;13.60;10.00;;;21.50;86.90;;;;;;6157359;23;20013;-84
2023/06/17 09:29:21;;;;;;;15.30;9.45;;;21.70;86.50;;;;;;6159003;23;20450;-84
2023/06/17 09:31:50;;;;;;;15.10;10.52;;;21.80;86.10;;;;;;6159086;23;20028;-90
2023/06/17 09:34:17;;;;;;;15.55;10.05;;;21.90;84.90;;;;;;6185118;23;20017;-84
2023/06/17 09:36:43;;;;;;;15.73;9.98;;;21.90;84.50;;;;;;6185907;23;20016;-84
2023/06/17 09:39:11;;;;;;;13.77;9.88;;;21.90;84.70;;;;;;6158820;23;20021;-92
2023/06/17 09:41:37;;;;;;;13.35;9.20;;;22.00;85.30;;;;;;6158928;23;20333;-83
2023/06/17 09:44:03;;;;;;;15.77;8.80;;;22.00;85.20;;;;;;6158698;23;20017;-84
2023/06/17 09:46:35;;;;;;;12.85;9.20;;;22.20;85.60;;;;;;6185196;23;20397;-83
2023/06/17 09:49:06;;;;;;;14.20;9.00;;;22.30;85.40;;;;;;6184425;23;20016;-84
2023/06/17 09:51:36;;;;;;;11.98;9.00;;;22.40;84.80;;;;;;6158787;23;20017;-84
2023/06/17 09:54:03;;;;;;;13.82;8.73;;;22.50;84.30;;;;;;6184704;23;20009;-84
2023/06/17 09:56:31;;;;;;;14.18;8.77;;;22.60;83.10;;;;;;6158197;23;20020;-84
2023/06/17 09:59:00;;;;;;;13.38;8.82;;;22.70;83.50;;;;;;6184668;23;20326;-84
2023/06/17 10:01:30;;;;;;;15.95;8.10;;;22.80;82.70;;;;;;6155596;23;20041;-84
2023/06/17 10:03:58;;;;;;;16.23;8.98;;;22.90;83.70;;;;;;6182802;23;20028;-84
2023/06/17 10:06:28;;;;;;;12.80;7.78;;;23.00;82.90;;;;;;6157643;23;20020;-85
2023/06/17 10:08:54;;;;;;;19.80;8.57;;;23.10;82.50;;;;;;6156724;23;20024;-84
2023/06/17 10:11:20;;;;;;;16.02;8.77;;;23.20;82.80;;;;;;6184233;23;20430;-85
2023/06/17 10:14:38;;;;;;;15.98;8.27;;;23.30;82.00;;;;;;6157005;23;20345;-85
2023/06/17 10:17:07;;;;;;;11.73;8.10;;;23.40;81.00;;;;;;6121054;23;20024;-84
2023/06/17 10:19:35;;;;;;;13.77;7.95;;;23.50;82.00;;;;;;6159102;23;20069;-85
2023/06/17 10:22:04;;;;;;;14.52;7.25;;;23.60;81.10;;;;;;6185335;23;20125;-84
2023/06/17 10:24:30;;;;;;;14.75;7.65;;;23.60;80.40;;;;;;6156509;23;20039;-84
2023/06/17 10:27:03;;;;;;;11.38;7.72;;;23.80;79.90;;;;;;6160583;23;20013;-83
2023/06/17 10:29:28;;;;;;;11.52;7.78;;;23.80;79.80;;;;;;6211328;23;19997;-86
2023/06/17 10:31:54;;;;;;;14.45;8.05;;;23.90;79.80;;;;;;6156423;23;20094;-83
2023/06/17 10:34:21;;;;;;;12.45;7.80;;;24.10;78.70;;;;;;6158840;23;20021;-83
2023/06/17 10:36:57;;;;;;;14.00;7.50;;;24.20;79.40;;;;;;6159303;23;20038;-83
2023/06/17 10:39:23;;;;;;;13.10;7.35;;;24.30;78.50;;;;;;6168733;23;20342;-82
2023/06/17 10:41:55;;;;;;;11.52;7.32;;;24.40;79.10;;;;;;6157224;23;20021;-81
2023/06/17 10:44:33;;;;;;;11.10;7.05;;;24.50;79.00;;;;;;6157782;23;20472;-81
2023/06/17 10:46:59;;;;;;;12.02;6.45;;;24.70;77.80;;;;;;6185063;23;20350;-81
2023/06/17 10:49:25;;;;;;;13.60;6.97;;;24.70;76.20;;;;;;6185095;23;20016;-81
2023/06/17 10:51:55;;;;;;;9.27;6.05;;;24.80;74.40;;;;;;6157449;23;20516;-81
2023/06/17 10:54:31;;;;;;;10.43;6.13;;;24.80;72.30;;;;;;6158637;23;20009;-81
2023/06/17 10:56:59;;;;;;;10.00;6.85;;;24.90;73.30;;;;;;6184839;23;20446;-82
2023/06/17 10:59:30;;;;;;;9.13;6.15;;;24.90;74.90;;;;;;6157656;23;20464;-81
2023/06/17 11:02:03;;;;;;;11.35;6.13;;;25.10;76.00;;;;;;6157802;23;20023;-82
2023/06/17 11:04:40;;;;;;;11.70;6.07;;;25.20;73.90;;;;;;6157783;23;20017;-82
2023/06/17 11:07:06;;;;;;;12.65;6.38;;;25.30;73.90;;;;;;6152687;23;20017;-82
2023/06/17 11:09:33;;;;;;;9.93;6.47;;;25.30;71.70;;;;;;6158489;23;20319;-83
2023/06/17 11:12:01;;;;;;;11.75;7.03;;;25.40;71.30;;;;;;6157550;23;20493;-82
2023/06/17 11:14:28;;;;;;;9.70;6.22;;;25.50;73.30;;;;;;6158649;23;20069;-82
2023/06/17 11:16:54;;;;;;;12.38;6.30;;;25.60;71.90;;;;;;6157684;23;20027;-84
2023/06/17 11:19:20;;;;;;;10.40;6.60;;;25.60;70.80;;;;;;6156519;23;20044;-83
2023/06/17 11:21:49;;;;;;;11.82;6.15;;;25.70;72.20;;;;;;6184325;23;20413;-83
2023/06/17 11:24:15;;;;;;;10.10;6.05;;;25.70;72.30;;;;;;6158037;23;20337;-84
2023/06/17 11:26:42;;;;;;;12.18;6.80;;;25.80;70.20;;;;;;6157363;23;20017;-83
2023/06/17 11:29:08;;;;;;;9.88;5.50;;;25.90;72.90;;;;;;6184137;23;20017;-83
2023/06/17 11:31:36;;;;;;;8.77;5.72;;;26.00;68.40;;;;;;6185039;23;20314;-83
2023/06/17 11:34:02;;;;;;;10.15;6.03;;;26.00;68.60;;;;;;6183105;23;20537;-83
2023/06/17 11:36:28;;;;;;;10.13;5.97;;;26.10;70.10;;;;;;6157771;23;20021;-83
2023/06/17 11:38:57;;;;;;;10.75;5.55;;;26.20;68.30;;;;;;6158252;23;20016;-85
2023/06/17 11:41:23;;;;;;;10.10;5.03;;;26.40;67.60;;;;;;6157087;23;20461;-82
2023/06/17 11:43:50;;;;;;;10.07;5.68;;;26.40;65.90;;;;;;6157820;23;20105;-83
2023/06/17 11:46:23;;;;;;;11.93;5.55;;;26.40;66.20;;;;;;6184115;23;20074;-84
2023/06/17 11:48:49;;;;;;;15.52;5.43;;;26.50;66.20;;;;;;6183084;23;20021;-84
2023/06/17 11:51:18;;;;;;;9.10;5.47;;;26.50;66.90;;;;;;6184053;23;20016;-83
2023/06/17 11:53:46;;;;;;;9.20;5.57;;;26.60;67.10;;;;;;6183490;23;20516;-83
2023/06/17 11:56:13;;;;;;;9.93;5.55;;;26.70;68.50;;;;;;6184454;23;20024;-83
2023/06/17 11:58:40;;;;;;;10.18;4.70;;;26.80;64.80;;;;;;6158362;23;20128;-84
2023/06/17 12:01:08;;;;;;;10.82;5.32;;;26.80;61.90;;;;;;6183777;23;20017;-85
2023/06/17 12:03:34;;;;;;;10.68;5.70;;;26.80;61.30;;;;;;6184961;23;20139;-84
2023/06/17 12:06:00;;;;;;;8.85;5.47;;;26.80;62.50;;;;;;6157945;23;20477;-84
2023/06/17 12:08:33;;;;;;;11.18;5.43;;;26.80;62.70;;;;;;6183953;23;20021;-83
2023/06/17 12:11:03;;;;;;;;;;;26.90;59.40;;;;;;6183834;23;20017;-84
2023/06/17 12:13:39;;;;;;;9.35;4.82;;;26.80;60.10;;;;;;6185008;23;19939;-84
2023/06/17 12:16:23;;;;;;;8.07;5.22;;;26.90;61.80;;;;;;6157052;23;20013;-83
2023/06/17 12:18:50;;;;;;;11.07;5.25;;;27.00;60.80;;;;;;6185044;23;20035;-84
2023/06/17 12:21:18;;;;;;;9.38;4.88;;;27.10;58.90;;;;;;6184889;23;20017;-84
2023/06/17 12:23:44;;;;;;;8.75;5.20;;;27.10;62.30;;;;;;6157597;23;20017;-84
2023/06/17 12:26:10;;;;;;;6.60;4.45;;;27.30;63.30;;;;;;6184578;23;20020;-84
2023/06/17 12:28:36;;;;;;;9.73;4.90;;;27.30;60.80;;;;;;6183664;23;20017;-84
2023/06/17 12:31:02;;;;;;;8.70;4.78;;;27.30;57.90;;;;;;6156818;23;20104;-84
2023/06/17 12:33:28;;;;;;;13.75;5.25;;;27.30;56.60;;;;;;6185124;23;20044;-84
2023/06/17 12:35:54;;;;;;;9.30;4.78;;;27.40;57.20;;;;;;6183637;23;20032;-84